sensor_id;sensor_type;location;lat;lon;timestamp;P1;durP1;ratioP1;P2;durP2;ratioP2
77018;SDS011;66044;53.142;17.962;2023-03-11T00:03:07;15.60;;;7.30;;
77018;SDS011;66044;53.142;17.962;2023-03-11T00:05:35;13.40;;;6.00;;
77018;SDS011;66044;53.142;17.962;2023-03-11T00:08:04;14.10;;;6.60;;
77018;SDS011;66044;53.142;17.962;2023-03-11T00:10:38;13.00;;;6.30;;
77018;SDS011;66044;53.142;17.962;2023-03-11T00:13:08;16.30;;;7.00;;
77018;SDS011;66044;53.142;17.962;2023-03-11T00:15:36;15.70;;;7.00;;
77018;SDS011;66044;53.142;17.962;2023-03-11T00:18:04;18.60;;;7.90;;
77018;SDS011;66044;53.142;17.962;2023-03-11T00:20:35;18.60;;;9.00;;
77018;SDS011;66044;53.142;17.962;2023-03-11T00:23:04;20.20;;;9.10;;
77018;SDS011;66044;53.142;17.962;2023-03-11T00:25:33;17.70;;;8.20;;
77018;SDS011;66044;53.142;17.962;2023-03-11T00:28:02;17.20;;;8.40;;
77018;SDS011;66044;53.142;17.962;2023-03-11T00:30:29;17.70;;;8.70;;
77018;SDS011;66044;53.142;17.962;2023-03-11T00:32:57;17.20;;;7.20;;
77018;SDS011;66044;53.142;17.962;2023-03-11T00:35:26;14.20;;;7.20;;
77018;SDS011;66044;53.142;17.962;2023-03-11T00:37:55;15.00;;;8.40;;
77018;SDS011;66044;53.142;17.962;2023-03-11T00:40:27;14.40;;;7.40;;
77018;SDS011;66044;53.142;17.962;2023-03-11T00:42:55;15.10;;;7.40;;
77018;SDS011;66044;53.142;17.962;2023-03-11T00:45:23;15.60;;;7.80;;
77018;SDS011;66044;53.142;17.962;2023-03-11T00:47:51;14.10;;;7.60;;
77018;SDS011;66044;53.142;17.962;2023-03-11T00:50:19;13.70;;;6.80;;
77018;SDS011;66044;53.142;17.962;2023-03-11T00:52:49;14.50;;;7.40;;
77018;SDS011;66044;53.142;17.962;2023-03-11T00:55:18;16.00;;;8.10;;
77018;SDS011;66044;53.142;17.962;2023-03-11T00:57:52;16.20;;;7.80;;
77018;SDS011;66044;53.142;17.962;2023-03-11T01:00:25;13.40;;;6.90;;
77018;SDS011;66044;53.142;17.962;2023-03-11T01:02:53;16.00;;;7.60;;
77018;SDS011;66044;53.142;17.962;2023-03-11T01:05:22;15.00;;;8.10;;
77018;SDS011;66044;53.142;17.962;2023-03-11T01:07:51;14.10;;;6.70;;
77018;SDS011;66044;53.142;17.962;2023-03-11T01:10:18;13.70;;;6.60;;
77018;SDS011;66044;53.142;17.962;2023-03-11T01:12:45;15.00;;;7.20;;
77018;SDS011;66044;53.142;17.962;2023-03-11T01:15:19;16.10;;;7.60;;
77018;SDS011;66044;53.142;17.962;2023-03-11T01:17:48;17.10;;;8.20;;
77018;SDS011;66044;53.142;17.962;2023-03-11T01:20:15;18.00;;;8.70;;
77018;SDS011;66044;53.142;17.962;2023-03-11T01:22:42;18.80;;;9.50;;
77018;SDS011;66044;53.142;17.962;2023-03-11T01:25:10;17.00;;;8.40;;
77018;SDS011;66044;53.142;17.962;2023-03-11T01:27:38;16.10;;;8.50;;
77018;SDS011;66044;53.142;17.962;2023-03-11T01:30:05;16.90;;;7.90;;
77018;SDS011;66044;53.142;17.962;2023-03-11T01:32:33;18.80;;;9.40;;
77018;SDS011;66044;53.142;17.962;2023-03-11T01:34:59;16.30;;;7.30;;
77018;SDS011;66044;53.142;17.962;2023-03-11T01:37:26;15.40;;;8.00;;
77018;SDS011;66044;53.142;17.962;2023-03-11T01:39:52;15.70;;;7.60;;
77018;SDS011;66044;53.142;17.962;2023-03-11T01:42:19;15.00;;;7.10;;
77018;SDS011;66044;53.142;17.962;2023-03-11T01:44:45;14.30;;;7.80;;
77018;SDS011;66044;53.142;17.962;2023-03-11T01:49:38;14.40;;;6.50;;
77018;SDS011;66044;53.142;17.962;2023-03-11T01:52:07;13.80;;;6.60;;
77018;SDS011;66044;53.142;17.962;2023-03-11T01:54:36;15.10;;;7.60;;
77018;SDS011;66044;53.142;17.962;2023-03-11T01:57:07;13.70;;;7.20;;
77018;SDS011;66044;53.142;17.962;2023-03-11T01:59:39;15.50;;;8.50;;
77018;SDS011;66044;53.142;17.962;2023-03-11T02:02:17;14.40;;;7.00;;
77018;SDS011;66044;53.142;17.962;2023-03-11T02:04:48;13.70;;;6.90;;
77018;SDS011;66044;53.142;17.962;2023-03-11T02:07:17;12.70;;;6.10;;
77018;SDS011;66044;53.142;17.962;2023-03-11T02:09:43;14.40;;;7.20;;
77018;SDS011;66044;53.142;17.962;2023-03-11T02:12:11;13.00;;;6.90;;
77018;SDS011;66044;53.142;17.962;2023-03-11T02:14:41;13.00;;;6.40;;
77018;SDS011;66044;53.142;17.962;2023-03-11T02:17:10;12.10;;;6.10;;
77018;SDS011;66044;53.142;17.962;2023-03-11T02:22:03;13.90;;;7.20;;
77018;SDS011;66044;53.142;17.962;2023-03-11T02:27:11;12.20;;;6.00;;
77018;SDS011;66044;53.142;17.962;2023-03-11T02:29:39;10.30;;;5.90;;
77018;SDS011;66044;53.142;17.962;2023-03-11T02:32:07;12.60;;;6.20;;
77018;SDS011;66044;53.142;17.962;2023-03-11T02:34:36;13.40;;;6.00;;
77018;SDS011;66044;53.142;17.962;2023-03-11T02:37:05;12.30;;;6.50;;
77018;SDS011;66044;53.142;17.962;2023-03-11T02:39:40;13.30;;;6.60;;
77018;SDS011;66044;53.142;17.962;2023-03-11T02:42:21;13.50;;;7.20;;
77018;SDS011;66044;53.142;17.962;2023-03-11T02:45:00;15.60;;;8.70;;
77018;SDS011;66044;53.142;17.962;2023-03-11T02:47:32;14.30;;;7.00;;
77018;SDS011;66044;53.142;17.962;2023-03-11T02:50:00;12.90;;;5.70;;
77018;SDS011;66044;53.142;17.962;2023-03-11T02:52:26;13.60;;;6.10;;
77018;SDS011;66044;53.142;17.962;2023-03-11T02:54:54;13.60;;;6.80;;
77018;SDS011;66044;53.142;17.962;2023-03-11T02:57:20;13.70;;;7.10;;
77018;SDS011;66044;53.142;17.962;2023-03-11T02:59:47;12.30;;;5.80;;
77018;SDS011;66044;53.142;17.962;2023-03-11T03:02:13;12.80;;;5.70;;
77018;SDS011;66044;53.142;17.962;2023-03-11T03:04:40;12.60;;;6.00;;
77018;SDS011;66044;53.142;17.962;2023-03-11T03:07:06;11.80;;;6.00;;
77018;SDS011;66044;53.142;17.962;2023-03-11T03:09:34;12.70;;;6.00;;
77018;SDS011;66044;53.142;17.962;2023-03-11T03:12:02;12.40;;;6.00;;
77018;SDS011;66044;53.142;17.962;2023-03-11T03:14:29;11.30;;;5.20;;
77018;SDS011;66044;53.142;17.962;2023-03-11T03:16:56;10.70;;;5.60;;
77018;SDS011;66044;53.142;17.962;2023-03-11T03:19:22;10.10;;;4.60;;
77018;SDS011;66044;53.142;17.962;2023-03-11T03:21:49;10.50;;;5.10;;
77018;SDS011;66044;53.142;17.962;2023-03-11T03:24:15;11.30;;;5.20;;
77018;SDS011;66044;53.142;17.962;2023-03-11T03:26:42;8.60;;;4.20;;
77018;SDS011;66044;53.142;17.962;2023-03-11T03:29:08;9.30;;;4.30;;
77018;SDS011;66044;53.142;17.962;2023-03-11T03:31:35;8.70;;;4.20;;
77018;SDS011;66044;53.142;17.962;2023-03-11T03:34:01;9.00;;;4.50;;
77018;SDS011;66044;53.142;17.962;2023-03-11T03:36:27;9.80;;;4.70;;
77018;SDS011;66044;53.142;17.962;2023-03-11T03:38:55;12.20;;;5.50;;
77018;SDS011;66044;53.142;17.962;2023-03-11T03:41:22;12.10;;;5.80;;
77018;SDS011;66044;53.142;17.962;2023-03-11T03:43:49;12.60;;;5.80;;
77018;SDS011;66044;53.142;17.962;2023-03-11T03:46:15;11.20;;;5.60;;
77018;SDS011;66044;53.142;17.962;2023-03-11T03:48:42;9.40;;;4.80;;
77018;SDS011;66044;53.142;17.962;2023-03-11T03:51:09;10.10;;;5.10;;
77018;SDS011;66044;53.142;17.962;2023-03-11T03:53:37;10.60;;;5.30;;
77018;SDS011;66044;53.142;17.962;2023-03-11T03:56:07;10.30;;;4.80;;
77018;SDS011;66044;53.142;17.962;2023-03-11T03:58:36;9.80;;;4.40;;
77018;SDS011;66044;53.142;17.962;2023-03-11T04:01:03;13.80;;;6.00;;
77018;SDS011;66044;53.142;17.962;2023-03-11T04:03:33;14.10;;;6.70;;
77018;SDS011;66044;53.142;17.962;2023-03-11T04:06:04;16.10;;;7.10;;
77018;SDS011;66044;53.142;17.962;2023-03-11T04:08:33;17.40;;;7.20;;
77018;SDS011;66044;53.142;17.962;2023-03-11T04:11:00;18.90;;;7.40;;
77018;SDS011;66044;53.142;17.962;2023-03-11T04:13:27;17.60;;;7.10;;
77018;SDS011;66044;53.142;17.962;2023-03-11T04:15:53;15.80;;;7.30;;
77018;SDS011;66044;53.142;17.962;2023-03-11T04:18:19;16.80;;;7.20;;
77018;SDS011;66044;53.142;17.962;2023-03-11T04:20:47;12.60;;;5.90;;
77018;SDS011;66044;53.142;17.962;2023-03-11T04:23:14;14.60;;;6.60;;
77018;SDS011;66044;53.142;17.962;2023-03-11T04:25:41;13.50;;;5.70;;
77018;SDS011;66044;53.142;17.962;2023-03-11T04:28:08;13.80;;;5.80;;
77018;SDS011;66044;53.142;17.962;2023-03-11T04:30:34;14.50;;;6.20;;
77018;SDS011;66044;53.142;17.962;2023-03-11T04:33:01;15.60;;;6.30;;
77018;SDS011;66044;53.142;17.962;2023-03-11T04:35:27;12.10;;;5.60;;
77018;SDS011;66044;53.142;17.962;2023-03-11T04:37:54;10.70;;;4.70;;
77018;SDS011;66044;53.142;17.962;2023-03-11T04:40:20;11.40;;;4.70;;
77018;SDS011;66044;53.142;17.962;2023-03-11T04:42:47;9.40;;;4.60;;
77018;SDS011;66044;53.142;17.962;2023-03-11T04:45:13;10.30;;;4.90;;
77018;SDS011;66044;53.142;17.962;2023-03-11T04:47:40;10.80;;;5.30;;
77018;SDS011;66044;53.142;17.962;2023-03-11T04:50:06;9.20;;;4.80;;
77018;SDS011;66044;53.142;17.962;2023-03-11T04:52:33;10.00;;;4.60;;
77018;SDS011;66044;53.142;17.962;2023-03-11T04:55:00;10.00;;;4.70;;
77018;SDS011;66044;53.142;17.962;2023-03-11T04:57:26;8.40;;;4.10;;
77018;SDS011;66044;53.142;17.962;2023-03-11T04:59:53;8.90;;;4.30;;
77018;SDS011;66044;53.142;17.962;2023-03-11T05:02:19;8.80;;;4.50;;
77018;SDS011;66044;53.142;17.962;2023-03-11T05:04:46;8.30;;;4.20;;
77018;SDS011;66044;53.142;17.962;2023-03-11T05:07:12;9.80;;;5.10;;
77018;SDS011;66044;53.142;17.962;2023-03-11T05:09:38;8.30;;;4.20;;
77018;SDS011;66044;53.142;17.962;2023-03-11T05:12:05;9.00;;;4.50;;
77018;SDS011;66044;53.142;17.962;2023-03-11T05:14:32;8.30;;;3.60;;
77018;SDS011;66044;53.142;17.962;2023-03-11T05:16:59;9.20;;;4.30;;
77018;SDS011;66044;53.142;17.962;2023-03-11T05:19:25;10.50;;;5.00;;
77018;SDS011;66044;53.142;17.962;2023-03-11T05:22:00;10.70;;;5.10;;
77018;SDS011;66044;53.142;17.962;2023-03-11T05:24:27;7.40;;;3.40;;
77018;SDS011;66044;53.142;17.962;2023-03-11T05:26:54;7.70;;;3.50;;
77018;SDS011;66044;53.142;17.962;2023-03-11T05:29:21;8.40;;;4.30;;
77018;SDS011;66044;53.142;17.962;2023-03-11T05:31:48;9.30;;;4.40;;
77018;SDS011;66044;53.142;17.962;2023-03-11T05:34:15;9.80;;;5.10;;
77018;SDS011;66044;53.142;17.962;2023-03-11T05:36:42;9.00;;;5.20;;
77018;SDS011;66044;53.142;17.962;2023-03-11T05:39:09;7.50;;;3.50;;
77018;SDS011;66044;53.142;17.962;2023-03-11T05:41:36;9.70;;;4.30;;
77018;SDS011;66044;53.142;17.962;2023-03-11T05:44:03;8.50;;;4.50;;
77018;SDS011;66044;53.142;17.962;2023-03-11T05:46:30;9.40;;;5.10;;
77018;SDS011;66044;53.142;17.962;2023-03-11T05:49:00;8.80;;;5.00;;
77018;SDS011;66044;53.142;17.962;2023-03-11T05:51:27;9.20;;;5.00;;
77018;SDS011;66044;53.142;17.962;2023-03-11T05:53:54;10.40;;;5.00;;
77018;SDS011;66044;53.142;17.962;2023-03-11T05:56:21;10.50;;;5.60;;
77018;SDS011;66044;53.142;17.962;2023-03-11T05:58:49;11.00;;;5.70;;
77018;SDS011;66044;53.142;17.962;2023-03-11T06:01:16;11.00;;;5.80;;
77018;SDS011;66044;53.142;17.962;2023-03-11T06:03:44;12.20;;;5.80;;
77018;SDS011;66044;53.142;17.962;2023-03-11T06:06:11;9.50;;;5.40;;
77018;SDS011;66044;53.142;17.962;2023-03-11T06:08:38;13.70;;;7.20;;
77018;SDS011;66044;53.142;17.962;2023-03-11T06:11:08;15.80;;;7.50;;
77018;SDS011;66044;53.142;17.962;2023-03-11T06:13:36;20.70;;;10.30;;
77018;SDS011;66044;53.142;17.962;2023-03-11T06:16:03;16.70;;;6.70;;
77018;SDS011;66044;53.142;17.962;2023-03-11T06:18:30;14.30;;;7.00;;
77018;SDS011;66044;53.142;17.962;2023-03-11T06:20:57;12.60;;;6.50;;
77018;SDS011;66044;53.142;17.962;2023-03-11T06:23:25;10.90;;;6.50;;
77018;SDS011;66044;53.142;17.962;2023-03-11T06:26:03;10.30;;;5.70;;
77018;SDS011;66044;53.142;17.962;2023-03-11T06:28:30;8.80;;;4.40;;
77018;SDS011;66044;53.142;17.962;2023-03-11T06:31:08;10.10;;;5.80;;
77018;SDS011;66044;53.142;17.962;2023-03-11T06:33:41;9.70;;;5.60;;
77018;SDS011;66044;53.142;17.962;2023-03-11T06:36:09;9.20;;;4.60;;
77018;SDS011;66044;53.142;17.962;2023-03-11T06:38:37;10.30;;;5.70;;
77018;SDS011;66044;53.142;17.962;2023-03-11T06:41:04;11.00;;;4.20;;
77018;SDS011;66044;53.142;17.962;2023-03-11T06:43:33;10.00;;;5.30;;
77018;SDS011;66044;53.142;17.962;2023-03-11T06:46:01;15.40;;;8.00;;
77018;SDS011;66044;53.142;17.962;2023-03-11T06:48:33;12.00;;;6.10;;
77018;SDS011;66044;53.142;17.962;2023-03-11T06:50:59;11.80;;;5.30;;
77018;SDS011;66044;53.142;17.962;2023-03-11T06:53:27;10.10;;;5.50;;
77018;SDS011;66044;53.142;17.962;2023-03-11T06:56:02;10.60;;;5.60;;
77018;SDS011;66044;53.142;17.962;2023-03-11T06:58:31;9.20;;;5.10;;
77018;SDS011;66044;53.142;17.962;2023-03-11T07:01:02;9.90;;;5.20;;
77018;SDS011;66044;53.142;17.962;2023-03-11T07:03:34;8.20;;;3.80;;
77018;SDS011;66044;53.142;17.962;2023-03-11T07:06:00;9.50;;;5.00;;
77018;SDS011;66044;53.142;17.962;2023-03-11T07:08:27;10.70;;;6.10;;
77018;SDS011;66044;53.142;17.962;2023-03-11T07:13:28;8.60;;;4.30;;
77018;SDS011;66044;53.142;17.962;2023-03-11T07:16:05;10.40;;;5.10;;
77018;SDS011;66044;53.142;17.962;2023-03-11T07:18:34;7.30;;;3.60;;
77018;SDS011;66044;53.142;17.962;2023-03-11T07:21:02;7.20;;;3.30;;
77018;SDS011;66044;53.142;17.962;2023-03-11T07:23:30;8.10;;;4.40;;
77018;SDS011;66044;53.142;17.962;2023-03-11T07:25:57;8.00;;;3.90;;
77018;SDS011;66044;53.142;17.962;2023-03-11T07:28:24;7.60;;;3.00;;
77018;SDS011;66044;53.142;17.962;2023-03-11T07:30:52;8.80;;;3.90;;
77018;SDS011;66044;53.142;17.962;2023-03-11T07:33:20;7.90;;;3.50;;
77018;SDS011;66044;53.142;17.962;2023-03-11T07:35:49;9.80;;;4.60;;
77018;SDS011;66044;53.142;17.962;2023-03-11T07:38:16;8.90;;;4.20;;
77018;SDS011;66044;53.142;17.962;2023-03-11T07:40:44;9.70;;;4.30;;
77018;SDS011;66044;53.142;17.962;2023-03-11T07:43:11;7.90;;;3.80;;
77018;SDS011;66044;53.142;17.962;2023-03-11T07:45:37;7.90;;;3.60;;
77018;SDS011;66044;53.142;17.962;2023-03-11T07:48:04;9.60;;;4.00;;
77018;SDS011;66044;53.142;17.962;2023-03-11T07:50:30;8.80;;;4.20;;
77018;SDS011;66044;53.142;17.962;2023-03-11T07:52:57;9.40;;;4.70;;
77018;SDS011;66044;53.142;17.962;2023-03-11T07:55:23;8.90;;;4.20;;
77018;SDS011;66044;53.142;17.962;2023-03-11T07:57:50;9.00;;;4.80;;
77018;SDS011;66044;53.142;17.962;2023-03-11T08:00:17;10.20;;;4.40;;
77018;SDS011;66044;53.142;17.962;2023-03-11T08:02:44;7.50;;;3.20;;
77018;SDS011;66044;53.142;17.962;2023-03-11T08:05:10;7.20;;;3.50;;
77018;SDS011;66044;53.142;17.962;2023-03-11T08:07:37;8.10;;;3.60;;
77018;SDS011;66044;53.142;17.962;2023-03-11T08:10:04;7.10;;;2.80;;
77018;SDS011;66044;53.142;17.962;2023-03-11T08:12:31;8.60;;;4.40;;
77018;SDS011;66044;53.142;17.962;2023-03-11T08:14:58;8.80;;;3.80;;
77018;SDS011;66044;53.142;17.962;2023-03-11T08:17:25;8.00;;;3.20;;
77018;SDS011;66044;53.142;17.962;2023-03-11T08:19:51;7.50;;;3.40;;
77018;SDS011;66044;53.142;17.962;2023-03-11T08:22:18;7.60;;;3.70;;
77018;SDS011;66044;53.142;17.962;2023-03-11T08:24:44;10.30;;;4.60;;
77018;SDS011;66044;53.142;17.962;2023-03-11T08:27:10;7.70;;;3.40;;
77018;SDS011;66044;53.142;17.962;2023-03-11T08:29:37;9.70;;;3.70;;
77018;SDS011;66044;53.142;17.962;2023-03-11T08:32:04;8.80;;;3.90;;
77018;SDS011;66044;53.142;17.962;2023-03-11T08:34:31;9.60;;;4.10;;
77018;SDS011;66044;53.142;17.962;2023-03-11T08:37:00;8.50;;;3.80;;
77018;SDS011;66044;53.142;17.962;2023-03-11T08:39:26;9.60;;;3.50;;
77018;SDS011;66044;53.142;17.962;2023-03-11T08:41:53;8.00;;;3.50;;
77018;SDS011;66044;53.142;17.962;2023-03-11T08:44:19;7.30;;;3.10;;
77018;SDS011;66044;53.142;17.962;2023-03-11T08:46:46;8.80;;;3.60;;
77018;SDS011;66044;53.142;17.962;2023-03-11T08:49:12;8.80;;;3.90;;
77018;SDS011;66044;53.142;17.962;2023-03-11T08:51:39;7.40;;;3.40;;
77018;SDS011;66044;53.142;17.962;2023-03-11T08:54:05;8.40;;;3.90;;
77018;SDS011;66044;53.142;17.962;2023-03-11T08:56:32;9.80;;;4.60;;
77018;SDS011;66044;53.142;17.962;2023-03-11T08:58:58;8.70;;;3.40;;
77018;SDS011;66044;53.142;17.962;2023-03-11T09:01:25;7.80;;;3.10;;
77018;SDS011;66044;53.142;17.962;2023-03-11T09:03:51;10.10;;;3.80;;
77018;SDS011;66044;53.142;17.962;2023-03-11T09:06:18;9.40;;;3.60;;
77018;SDS011;66044;53.142;17.962;2023-03-11T09:08:45;8.10;;;2.90;;
77018;SDS011;66044;53.142;17.962;2023-03-11T09:11:12;8.30;;;3.20;;
77018;SDS011;66044;53.142;17.962;2023-03-11T09:13:40;8.70;;;3.30;;
77018;SDS011;66044;53.142;17.962;2023-03-11T09:16:08;8.90;;;3.00;;
77018;SDS011;66044;53.142;17.962;2023-03-11T09:18:38;6.90;;;3.20;;
77018;SDS011;66044;53.142;17.962;2023-03-11T09:21:05;11.10;;;4.70;;
77018;SDS011;66044;53.142;17.962;2023-03-11T09:23:31;6.30;;;2.30;;
77018;SDS011;66044;53.142;17.962;2023-03-11T09:25:58;7.50;;;2.70;;
77018;SDS011;66044;53.142;17.962;2023-03-11T09:28:24;7.50;;;3.10;;
77018;SDS011;66044;53.142;17.962;2023-03-11T09:30:51;7.60;;;3.10;;
77018;SDS011;66044;53.142;17.962;2023-03-11T09:33:17;9.10;;;3.10;;
77018;SDS011;66044;53.142;17.962;2023-03-11T09:35:44;10.00;;;4.40;;
77018;SDS011;66044;53.142;17.962;2023-03-11T09:38:11;11.70;;;4.80;;
77018;SDS011;66044;53.142;17.962;2023-03-11T09:41:21;11.00;;;4.10;;
77018;SDS011;66044;53.142;17.962;2023-03-11T09:54:46;10.30;;;3.10;;
77018;SDS011;66044;53.142;17.962;2023-03-11T09:57:23;6.50;;;2.70;;
77018;SDS011;66044;53.142;17.962;2023-03-11T09:59:53;8.40;;;3.80;;
77018;SDS011;66044;53.142;17.962;2023-03-11T10:02:20;9.90;;;4.30;;
77018;SDS011;66044;53.142;17.962;2023-03-11T10:04:59;8.40;;;3.20;;
77018;SDS011;66044;53.142;17.962;2023-03-11T10:10:28;8.10;;;2.90;;
77018;SDS011;66044;53.142;17.962;2023-03-11T10:15:47;7.30;;;2.60;;
77018;SDS011;66044;53.142;17.962;2023-03-11T10:18:36;9.60;;;3.40;;
77018;SDS011;66044;53.142;17.962;2023-03-11T10:21:42;8.00;;;2.60;;
77018;SDS011;66044;53.142;17.962;2023-03-11T10:27:15;9.00;;;2.80;;
77018;SDS011;66044;53.142;17.962;2023-03-11T10:32:37;8.50;;;2.90;;
77018;SDS011;66044;53.142;17.962;2023-03-11T10:35:17;7.70;;;2.70;;
77018;SDS011;66044;53.142;17.962;2023-03-11T10:37:51;5.70;;;2.10;;
77018;SDS011;66044;53.142;17.962;2023-03-11T10:42:57;10.10;;;3.30;;
77018;SDS011;66044;53.142;17.962;2023-03-11T10:45:32;8.50;;;2.60;;
77018;SDS011;66044;53.142;17.962;2023-03-11T10:48:07;8.80;;;2.30;;
77018;SDS011;66044;53.142;17.962;2023-03-11T10:50:45;10.10;;;3.90;;
77018;SDS011;66044;53.142;17.962;2023-03-11T10:53:15;8.60;;;3.00;;
77018;SDS011;66044;53.142;17.962;2023-03-11T10:55:48;8.80;;;2.90;;
77018;SDS011;66044;53.142;17.962;2023-03-11T10:58:18;7.40;;;2.40;;
77018;SDS011;66044;53.142;17.962;2023-03-11T11:03:47;7.80;;;2.70;;
77018;SDS011;66044;53.142;17.962;2023-03-11T11:06:25;7.00;;;2.60;;
77018;SDS011;66044;53.142;17.962;2023-03-11T11:11:41;6.10;;;2.40;;
77018;SDS011;66044;53.142;17.962;2023-03-11T11:14:25;6.10;;;2.20;;
77018;SDS011;66044;53.142;17.962;2023-03-11T11:17:31;6.10;;;2.20;;
77018;SDS011;66044;53.142;17.962;2023-03-11T11:20:00;6.30;;;2.20;;
77018;SDS011;66044;53.142;17.962;2023-03-11T11:22:38;7.80;;;2.60;;
77018;SDS011;66044;53.142;17.962;2023-03-11T11:25:54;7.20;;;2.60;;
77018;SDS011;66044;53.142;17.962;2023-03-11T11:33:25;7.80;;;3.20;;
77018;SDS011;66044;53.142;17.962;2023-03-11T11:36:01;8.10;;;2.90;;
77018;SDS011;66044;53.142;17.962;2023-03-11T11:38:30;8.00;;;2.80;;
77018;SDS011;66044;53.142;17.962;2023-03-11T11:40:58;8.20;;;3.10;;
77018;SDS011;66044;53.142;17.962;2023-03-11T11:43:35;6.90;;;2.30;;
77018;SDS011;66044;53.142;17.962;2023-03-11T11:46:21;6.50;;;2.10;;
77018;SDS011;66044;53.142;17.962;2023-03-11T11:51:51;7.10;;;2.10;;
77018;SDS011;66044;53.142;17.962;2023-03-11T11:54:44;6.20;;;2.30;;
77018;SDS011;66044;53.142;17.962;2023-03-11T11:57:28;6.60;;;2.40;;
77018;SDS011;66044;53.142;17.962;2023-03-11T11:59:55;5.70;;;2.10;;
77018;SDS011;66044;53.142;17.962;2023-03-11T12:02:27;6.50;;;1.80;;
77018;SDS011;66044;53.142;17.962;2023-03-11T12:08:15;9.80;;;3.40;;
77018;SDS011;66044;53.142;17.962;2023-03-11T12:10:52;9.90;;;3.80;;
77018;SDS011;66044;53.142;17.962;2023-03-11T12:13:25;8.10;;;2.80;;
77018;SDS011;66044;53.142;17.962;2023-03-11T12:27:46;6.60;;;2.20;;
77018;SDS011;66044;53.142;17.962;2023-03-11T12:30:12;6.60;;;2.30;;
77018;SDS011;66044;53.142;17.962;2023-03-11T12:32:50;7.30;;;2.60;;
77018;SDS011;66044;53.142;17.962;2023-03-11T12:35:28;7.40;;;2.40;;
77018;SDS011;66044;53.142;17.962;2023-03-11T12:38:03;6.00;;;2.10;;
77018;SDS011;66044;53.142;17.962;2023-03-11T12:46:07;4.40;;;1.70;;
77018;SDS011;66044;53.142;17.962;2023-03-11T12:48:46;4.80;;;1.40;;
77018;SDS011;66044;53.142;17.962;2023-03-11T12:54:19;7.40;;;2.20;;
77018;SDS011;66044;53.142;17.962;2023-03-11T12:56:53;6.20;;;2.20;;
77018;SDS011;66044;53.142;17.962;2023-03-11T13:01:57;5.30;;;1.70;;
77018;SDS011;66044;53.142;17.962;2023-03-11T13:04:25;4.40;;;1.50;;
77018;SDS011;66044;53.142;17.962;2023-03-11T13:07:04;6.40;;;2.10;;
77018;SDS011;66044;53.142;17.962;2023-03-11T13:10:04;7.00;;;2.30;;
77018;SDS011;66044;53.142;17.962;2023-03-11T13:12:46;5.60;;;1.40;;
77018;SDS011;66044;53.142;17.962;2023-03-11T13:17:59;6.70;;;2.10;;
77018;SDS011;66044;53.142;17.962;2023-03-11T13:23:08;7.80;;;1.90;;
77018;SDS011;66044;53.142;17.962;2023-03-11T13:33:55;6.20;;;2.10;;
77018;SDS011;66044;53.142;17.962;2023-03-11T13:36:34;7.70;;;2.40;;
77018;SDS011;66044;53.142;17.962;2023-03-11T13:39:30;7.80;;;1.90;;
77018;SDS011;66044;53.142;17.962;2023-03-11T13:42:20;6.60;;;1.80;;
77018;SDS011;66044;53.142;17.962;2023-03-11T13:44:52;6.30;;;1.60;;
77018;SDS011;66044;53.142;17.962;2023-03-11T13:47:19;5.60;;;1.50;;
77018;SDS011;66044;53.142;17.962;2023-03-11T13:50:04;5.90;;;1.80;;
77018;SDS011;66044;53.142;17.962;2023-03-11T13:52:35;7.00;;;2.40;;
77018;SDS011;66044;53.142;17.962;2023-03-11T13:55:22;9.10;;;3.10;;
77018;SDS011;66044;53.142;17.962;2023-03-11T13:57:59;8.90;;;2.40;;
77018;SDS011;66044;53.142;17.962;2023-03-11T14:00:29;6.70;;;1.90;;
77018;SDS011;66044;53.142;17.962;2023-03-11T14:03:02;9.40;;;2.50;;
77018;SDS011;66044;53.142;17.962;2023-03-11T14:05:37;8.50;;;2.50;;
77018;SDS011;66044;53.142;17.962;2023-03-11T14:08:32;10.40;;;3.50;;
77018;SDS011;66044;53.142;17.962;2023-03-11T14:11:02;8.40;;;3.00;;
77018;SDS011;66044;53.142;17.962;2023-03-11T14:18:42;9.60;;;3.50;;
77018;SDS011;66044;53.142;17.962;2023-03-11T14:21:15;7.50;;;2.50;;
77018;SDS011;66044;53.142;17.962;2023-03-11T14:23:53;9.70;;;3.40;;
77018;SDS011;66044;53.142;17.962;2023-03-11T14:26:27;9.00;;;3.10;;
77018;SDS011;66044;53.142;17.962;2023-03-11T14:28:57;9.50;;;3.30;;
77018;SDS011;66044;53.142;17.962;2023-03-11T14:36:39;6.20;;;1.90;;
77018;SDS011;66044;53.142;17.962;2023-03-11T14:39:20;7.30;;;2.50;;
77018;SDS011;66044;53.142;17.962;2023-03-11T14:42:17;8.60;;;2.30;;
77018;SDS011;66044;53.142;17.962;2023-03-11T14:49:53;6.30;;;1.60;;
77018;SDS011;66044;53.142;17.962;2023-03-11T14:52:24;5.40;;;1.70;;
77018;SDS011;66044;53.142;17.962;2023-03-11T14:55:00;8.20;;;2.90;;
77018;SDS011;66044;53.142;17.962;2023-03-11T14:57:35;7.00;;;2.40;;
77018;SDS011;66044;53.142;17.962;2023-03-11T15:00:05;6.20;;;1.90;;
77018;SDS011;66044;53.142;17.962;2023-03-11T15:02:43;5.30;;;1.60;;
77018;SDS011;66044;53.142;17.962;2023-03-11T15:05:22;7.30;;;2.20;;
77018;SDS011;66044;53.142;17.962;2023-03-11T15:07:59;5.90;;;1.50;;
77018;SDS011;66044;53.142;17.962;2023-03-11T15:10:29;6.90;;;2.20;;
77018;SDS011;66044;53.142;17.962;2023-03-11T15:13:06;6.30;;;2.10;;
77018;SDS011;66044;53.142;17.962;2023-03-11T15:15:40;6.70;;;2.20;;
77018;SDS011;66044;53.142;17.962;2023-03-11T15:18:16;6.80;;;2.00;;
77018;SDS011;66044;53.142;17.962;2023-03-11T15:20:59;7.00;;;2.30;;
77018;SDS011;66044;53.142;17.962;2023-03-11T15:23:28;9.00;;;2.40;;
77018;SDS011;66044;53.142;17.962;2023-03-11T15:25:54;8.90;;;2.40;;
77018;SDS011;66044;53.142;17.962;2023-03-11T15:28:28;7.10;;;2.30;;
77018;SDS011;66044;53.142;17.962;2023-03-11T15:34:09;6.30;;;1.80;;
77018;SDS011;66044;53.142;17.962;2023-03-11T15:39:15;7.90;;;2.40;;
77018;SDS011;66044;53.142;17.962;2023-03-11T15:42:00;9.00;;;2.80;;
77018;SDS011;66044;53.142;17.962;2023-03-11T15:47:01;6.10;;;1.60;;
77018;SDS011;66044;53.142;17.962;2023-03-11T15:49:29;7.10;;;1.90;;
77018;SDS011;66044;53.142;17.962;2023-03-11T15:51:59;6.10;;;2.20;;
77018;SDS011;66044;53.142;17.962;2023-03-11T15:54:27;8.40;;;2.90;;
77018;SDS011;66044;53.142;17.962;2023-03-11T15:56:54;7.90;;;3.20;;
77018;SDS011;66044;53.142;17.962;2023-03-11T15:59:22;7.10;;;2.30;;
77018;SDS011;66044;53.142;17.962;2023-03-11T16:01:49;6.40;;;2.50;;
77018;SDS011;66044;53.142;17.962;2023-03-11T16:04:17;7.80;;;3.00;;
77018;SDS011;66044;53.142;17.962;2023-03-11T16:06:45;10.10;;;3.80;;
77018;SDS011;66044;53.142;17.962;2023-03-11T16:09:13;8.90;;;2.80;;
77018;SDS011;66044;53.142;17.962;2023-03-11T16:11:41;8.00;;;3.20;;
77018;SDS011;66044;53.142;17.962;2023-03-11T16:14:12;7.40;;;3.40;;
77018;SDS011;66044;53.142;17.962;2023-03-11T16:16:41;10.80;;;3.00;;
77018;SDS011;66044;53.142;17.962;2023-03-11T16:19:08;10.10;;;3.00;;
77018;SDS011;66044;53.142;17.962;2023-03-11T16:21:40;9.10;;;3.20;;
77018;SDS011;66044;53.142;17.962;2023-03-11T16:24:11;7.80;;;2.90;;
77018;SDS011;66044;53.142;17.962;2023-03-11T16:26:44;7.70;;;2.90;;
77018;SDS011;66044;53.142;17.962;2023-03-11T16:29:11;7.20;;;2.70;;
77018;SDS011;66044;53.142;17.962;2023-03-11T16:31:37;8.00;;;3.10;;
77018;SDS011;66044;53.142;17.962;2023-03-11T16:34:04;7.00;;;2.80;;
77018;SDS011;66044;53.142;17.962;2023-03-11T16:36:30;7.60;;;3.20;;
77018;SDS011;66044;53.142;17.962;2023-03-11T16:38:57;8.50;;;3.10;;
77018;SDS011;66044;53.142;17.962;2023-03-11T16:41:23;11.10;;;3.60;;